• Join FlightAware (Why Join?)
  • Login
  • US Flag 
04:50AM EST


 

Airport Tracker/Info


-or-


 

Live Flight TrackerFlight Track Log ✈ UAL4476 ✈ 13-Apr-2013 ✈ KCLE - KBOS

Flight Track Log - Related Links

Times and Time Zones

All times are in EDT time to prevent confusion due to time zone crossing. See the UAL4476 flight status page for this flight to view local times or setup timezone preferences in your user account.

Time Position Orientation Groundspeed Altitude Reporting Facility
EDT Latitude Longitude Course Direction KTS MPH feet Rate Location/Type
08:36AM 41.3919 -81.8811 286° West 161 185 1,800  Level Cleveland Center
08:38AM 41.4097 -81.9647 286° West 170 196 5,400 2,203 Climbing Cleveland Center
08:39AM 41.4686 -81.9217 29° Northeast 200 230 7,600 2,050 Climbing Cleveland Center
08:40AM 41.5300 -81.8397 45° Northeast 246 283 9,500 1,650 Climbing Cleveland Center
08:41AM 41.5956 -81.7547 44° Northeast 300 345 10,900 1,200 Climbing Cleveland Center
08:42AM 41.6631 -81.6561 47° Northeast 338 389 11,900 1,000 Climbing Cleveland Center
08:43AM 41.7039 -81.5175 68° East 405 466 12,900 1,400 Climbing Cleveland Center
08:44AM 41.7322 -81.3706 75° East 398 458 14,700 1,750 Climbing Cleveland Center
08:45AM 41.7581 -81.2206 77° East 398 458 16,400 1,350 Climbing Cleveland Center
08:46AM 41.7817 -81.0900 76° East 398 458 17,400 1,000 Climbing Cleveland Center
08:47AM 41.8094 -80.9369 76° East 413 475 18,400 1,050 Climbing Cleveland Center
08:48AM 41.8389 -80.7756 76° East 426 490 19,500 1,300 Climbing Cleveland Center
08:49AM 41.8683 -80.6139 76° East 436 502 21,000 1,750 Climbing Cleveland Center
08:50AM 41.8975 -80.4547 76° East 441 507 23,000 1,750 Climbing Cleveland Center
08:51AM 41.9242 -80.2817 78° East 436 502 24,500 1,250 Climbing Cleveland Center
08:52AM 41.9528 -80.1197 77° East 430 495 25,500 1,050 Climbing Cleveland Center
08:53AM 41.9833 -79.9547 76° East 439 505 26,600 1,050 Climbing Cleveland Center
08:54AM 42.0114 -79.7867 77° East 452 520 27,600 1,050 Climbing Cleveland Center
08:55AM 42.0414 -79.6158 77° East 452 520 28,700 1,050 Climbing Cleveland Center
08:56AM 42.0544 -79.4422 84° East 458 527 29,700 1,050 Climbing Cleveland Center
08:57AM 42.0628 -79.2631 86° East 468 539 30,800 1,050 Climbing Cleveland Center
08:58AM 42.0711 -79.0867 86° East 468 539 31,800 1,050 Climbing Cleveland Center
08:59AM 42.1000 -78.9097 78° East 473 544 32,900 600 Climbing Cleveland Center
09:00AM 42.1347 -78.7322 75° East 478 550 33,000 50 Climbing Cleveland Center
09:01AM 42.1711 -78.5381 76° East 498 573 33,000  Level Cleveland Center
09:02AM 42.2072 -78.3433 76° East 519 597 33,000  Level Cleveland Center
09:03AM 42.2428 -78.1458 76° East 524 603 33,000  Level Cleveland Center
09:04AM 42.2800 -77.9508 75° East 531 611 33,000  Level Cleveland Center
09:06AM 42.3556 -77.5181 77° East 540 621 33,000  Level Boston Center
09:07AM 42.3864 -77.3406 77° East 545 627 33,000  Level Boston Center
09:08AM 42.4217 -77.1436 76° East 540 621 33,000  Level Boston Center
09:09AM 42.4489 -76.9400 80° East 540 621 33,000  Level Boston Center
09:10AM 42.4714 -76.7361 81° East 540 621 33,000  Level Boston Center
09:11AM 42.4933 -76.5347 82° East 545 627 33,000  Level Boston Center
09:12AM 42.5108 -76.3331 83° East 545 627 33,000  Level Boston Center
09:13AM 42.5197 -76.1308 87° East 540 621 33,000  Level Boston Center
09:14AM 42.5239 -75.9281 88° East 535 616 33,000  Level Boston Center
09:15AM 42.5258 -75.7253 89° East 535 616 33,000  Level Boston Center
09:16AM 42.5300 -75.5000 88° East 540 621 33,000  Level Boston Center
09:17AM 42.5331 -75.3028 89° East 540 621 33,000 -50 Level Boston Center
09:18AM 42.5358 -75.1028 89° East 530 610 32,900  Descending Boston Center
09:19AM 42.5403 -74.9058 88° East 530 610 33,000 49 Climbing Boston Center
09:20AM 42.5447 -74.7003 88° East 530 610 33,000  Level Boston Center
09:21AM 42.5464 -74.5031 89° East 530 610 33,000  Level Boston Center
09:22AM 42.5497 -74.3003 89° East 530 610 33,000  Level Boston Center
09:23AM 42.5508 -74.1000 90° East 530 610 33,000  Level Boston Center
09:24AM 42.5517 -73.8972 90° East 535 616 33,000  Level Boston Center
09:25AM 42.5539 -73.6972 89° East 535 616 33,000  Level Boston Center
09:26AM 42.5539 -73.4914 90° East 535 616 33,000  Level Boston Center
09:27AM 42.5556 -73.2997 89° East 535 616 33,000 -407 Level Boston Center
09:28AM 42.5547 -73.1053 90° East 536 617 32,200 -1,160 Descending Boston Center
09:29AM 42.5536 -72.9050 90° East 531 611 30,700 -1,488 Descending Boston Center
09:30AM 42.5522 -72.7472 91° East 526 605 29,200 -2,380 Descending Boston Center
09:31AM 42.5483 -72.5217 91° East 509 586 25,900 -2,777 Descending Boston Center
09:32AM 42.5483 -72.3669 90° East 504 580 23,600 -2,773 Descending Boston Center
09:33AM 42.5481 -72.1497 90° East 495 570 20,400 -3,580 Descending Boston Center
09:34AM 42.5369 -71.9556 94° East 476 548 16,500 -3,917 Descending Boston Center
09:35AM 42.5217 -71.8092 98° East 450 518 12,500 -2,824 Descending Boston Center
09:36AM 42.5081 -71.6431 96° East 415 478 10,900 -1,174 Descending Boston Center
09:37AM 42.5000 -71.5667 98° East 344 396 10,700 -894 Descending KA90
09:38AM 42.4833 -71.4500 101° East 329 379 9,500 -850 Descending KA90
09:39AM 42.4833 -71.3333 90° East 318 366 9,000 -250 Descending KA90
09:40AM 42.4667 -71.2000 100° East 317 365 9,000 -650 Level KA90
09:41AM 42.4500 -71.1000 103° East 304 350 7,700 -1,150 Descending KA90
09:42AM 42.4333 -71.0167 105° East 241 277 6,700 -857 Descending KA90
09:43AM 42.3667 -70.9667 151° Southeast 242 278 5,900 -524 Descending KA90
09:44AM 42.3000 -70.9333 160° South 231 266 5,600 -1,000 Descending KA90
09:45AM 42.2333 -70.9667 200° South 238 274 3,900 -1,368 Descending KA90
09:46AM 42.1833 -70.9833 194° South 236 272 3,000 -474 Descending KA90
09:47AM 42.1333 -71.0333 217° Southwest 222 255 3,000  Level KA90
09:48AM 42.1500 -71.0833 294° West 178 205 3,000  Level KA90
09:49AM 42.2000 -71.0833 360° North 183 211 3,000 -300 Level KA90
09:50AM 42.2500 -71.0667 14° North 163 188 2,400 -700 Descending KA90
09:51AM 42.2833 -71.0500 20° North 135 155 1,600 -800 Descending KA90
09:52AM 42.3167 -71.0333 20° North 131 151 800 -800 Descending KA90